Home > Products > Valid Products > TAF

000
FTUS43 KFGF 051700
TAFGFK
TAF
KGFK 051721Z 0518/0618 19012KT P6SM SCT250
     FM051900 18015G24KT P6SM SCT250
     FM060100 19012KT P6SM SCT250
     FM061200 27009KT P6SM SCT040=



000
FTUS43 KFGF 051700
TAFFAR
TAF
KFAR 051721Z 0518/0618 19015G25KT P6SM SCT250
     FM060100 19012KT P6SM SCT250
     FM061200 27009KT P6SM SCT040=



000
FTUS43 KFGF 051100
TAFFAR
TAF
KFAR 051120Z 0512/0612 19010KT P6SM SKC
     FM051800 19015G25KT P6SM SCT250
     FM060100 19014KT P6SM SCT250=



000
FTUS43 KFGF 051100
TAFGFK
TAF
KGFK 051120Z 0512/0612 19012KT P6SM SKC
     FM051800 19015G25KT P6SM SCT250
     FM060100 19012KT P6SM SCT250=



000
FTUS43 KFGF 050500
TAFGFK
TAF
KGFK 050520Z 0506/0606 25007KT P6SM SKC
     FM051700 19018G25KT P6SM FEW250
     FM060200 21013KT P6SM SCT250=



000
FTUS43 KFGF 050500
TAFFAR
TAF
KFAR 050520Z 0506/0606 27007KT P6SM SKC
     FM051700 18015G24KT P6SM FEW250
     FM060200 18015KT P6SM SCT250=



000
FTUS43 KFGF 050500
TAFFAR
TAF
KFAR 050520Z 0506/0606 27007KT P6SM SKC
     FM051700 18015G24KT P6SM FEW250
     FM060200 18015KT P6SM SCT250=



000
FTUS43 KFGF 042300
TAFGFK
TAF
KGFK 042332Z 0500/0524 31013G20KT P6SM SCT025
     FM050100 29007KT P6SM SKC
     FM051700 19018G25KT P6SM FEW250=



000
FTUS43 KFGF 042300
TAFFAR
TAF
KFAR 042332Z 0500/0524 31011KT P6SM SCT020
     FM050100 29009KT P6SM SKC
     FM051700 18015G24KT P6SM FEW250=



000
FTUS43 KFGF 042300
TAFGFK
TAF
KGFK 042332Z 0500/0524 31013G20KT P6SM SCT025
     FM050100 29007KT P6SM SKC
     FM051700 19018G25KT P6SM FEW250=



000
FTUS43 KFGF 042300
TAFFAR
TAF
KFAR 042332Z 0500/0524 31011KT P6SM SCT020
     FM050100 29009KT P6SM SKC
     FM051700 18015G24KT P6SM FEW250=



000
FTUS43 KFGF 042100 AAA
TAFGFK
TAF AMD
KGFK 042155Z 0422/0518 32015KT P6SM FEW025
      TEMPO 0422/0424 BKN025
     FM050000 29007KT P6SM SKC=



000
FTUS43 KFGF 041700
TAFGFK
TAF
KGFK 041721Z 0418/0518 32015KT P6SM FEW025
      TEMPO 0418/0420 BKN025
     FM050000 29007KT P6SM SKC=



000
FTUS43 KFGF 041700
TAFGFK
TAF
KGFK 041721Z 0418/0518 32015KT P6SM FEW025
      TEMPO 0418/0420 BKN025
     FM050000 29007KT P6SM SKC=



000
FTUS43 KFGF 041700
TAFFAR
TAF
KFAR 041721Z 0418/0518 31015KT P6SM FEW025
      TEMPO 0418/0420 BKN025
     FM050000 29006KT P6SM SKC=



000
FTUS43 KFGF 041700
TAFFAR
TAF
KFAR 041721Z 0418/0518 31015KT P6SM FEW025
      TEMPO 0418/0420 BKN025
     FM050000 29006KT P6SM SKC=



000
FTUS43 KFGF 041100
TAFGFK
TAF
KGFK 041120Z 0412/0512 30012KT P6SM SCT040
     FM041800 32015KT P6SM BKN040
     FM050000 29007KT P6SM SKC=



000
FTUS43 KFGF 041100
TAFFAR
TAF
KFAR 041120Z 0412/0512 27008KT P6SM SCT040
     FM041500 31015KT P6SM SCT040
     FM050000 29006KT P6SM SKC=



000
FTUS43 KFGF 040500
TAFGFK
TAF
KGFK 040520Z 0406/0506 29010KT P6SM FEW025
     FM041600 31015KT P6SM BKN060
     FM050200 27007KT P6SM SKC=



000
FTUS43 KFGF 040500
TAFFAR
TAF
KFAR 040520Z 0406/0506 29011KT P6SM SKC
     FM041600 31015KT P6SM BKN060
     FM050200 27007KT P6SM SKC=



000
FTUS43 KFGF 032300
TAFFAR
TAF
KFAR 032335Z 0400/0424 31019G27KT P6SM -SN BKN025
     FM040300 31013KT P6SM SCT250
     FM041100 31015KT P6SM BKN060=



000
FTUS43 KFGF 032300
TAFGFK
TAF
KGFK 032335Z 0400/0424 30018G26KT P6SM FEW015 OVC025
      TEMPO 0400/0401 4SM BLSN
     FM040300 30011KT P6SM SCT250
     FM041100 31015KT P6SM BKN060=



000
FTUS43 KFGF 032300
TAFGFK
TAF
KGFK 032335Z 0400/0424 30018G26KT P6SM FEW015 OVC025
      TEMPO 0400/0401 4SM BLSN
     FM040300 30011KT P6SM SCT250
     FM041100 31015KT P6SM BKN060=



000
FTUS43 KFGF 032300
TAFFAR
TAF
KFAR 032335Z 0400/0424 31019G27KT P6SM -SN BKN025
     FM040300 31013KT P6SM SCT250
     FM041100 31015KT P6SM BKN060=



000
FTUS43 KFGF 032000 AAA
TAFGFK
TAF AMD
KGFK 032011Z 0320/0418 31021G30KT P6SM BKN025
      TEMPO 0320/0324 SCT025 BKN040
     FM040000 30018KT P6SM SCT040 SCT250
     FM040600 30010KT P6SM SCT250=



000
FTUS43 KFGF 031700
TAFGFK
TAF
KGFK 031720Z 0318/0418 32021G31KT P6SM SCT025 BKN040
     FM040000 30018KT P6SM SCT250
     FM040600 30010KT P6SM SCT250=



000
FTUS43 KFGF 031700
TAFFAR
TAF
KFAR 031720Z 0318/0418 32025G35KT P6SM SCT015 BKN035
      TEMPO 0318/0321 OVC025
     FM032300 32018G25KT P6SM SCT015 SCT060
     FM040300 31013KT P6SM SCT250=



000
FTUS43 KFGF 031700
TAFGFK
TAF
KGFK 031720Z 0318/0418 32021G31KT P6SM SCT025 BKN040
     FM040000 30018KT P6SM SCT250
     FM040600 30010KT P6SM SCT250=



000
FTUS43 KFGF 031700
TAFFAR
TAF
KFAR 031720Z 0318/0418 32025G35KT P6SM SCT015 BKN035
      TEMPO 0318/0321 OVC025
     FM032300 32018G25KT P6SM SCT015 SCT060
     FM040300 31013KT P6SM SCT250=



000
FTUS43 KFGF 031100
TAFFAR
TAF
KFAR 031120Z 0312/0412 32023G33KT P6SM BKN040
      TEMPO 0312/0315 5SM -SN OVC025
     FM031800 32024G35KT P6SM BKN040
     FM040000 30018KT P6SM BKN060
     FM040600 29012KT P6SM SCT250=



000
FTUS43 KFGF 031100
TAFGFK
TAF
KGFK 031120Z 0312/0412 33020G30KT P6SM OVC100
      TEMPO 0312/0316 5SM -SN OVC025
     FM031600 33021G31KT P6SM BKN050
     FM040000 30018KT P6SM SCT250
     FM040600 30010KT P6SM SKC=



000
FTUS43 KFGF 031000 AAA
TAFGFK
TAF AMD
KGFK 031023Z 0310/0406 32015G25KT P6SM OVC100
      TEMPO 0310/0312 5SM -SN OVC025
     FM031300 32023G30KT 4SM -SN OVC015=



000
FTUS43 KFGF 030500
TAFGFK
TAF
KGFK 030531Z 0306/0406 18015KT P6SM FEW080
     FM031000 30015G22KT 4SM -SN OVC020
     FM031300 32023G30KT 4SM -SN OVC015=



000
FTUS43 KFGF 030500
TAFFAR
TAF
KFAR 030531Z 0306/0406 17023KT P6SM BKN200
     FM030900 23014KT 5SM -SN OVC030
     FM031100 31017G24KT 2SM -SN OVC019
     FM031400 32023G32KT 1SM -SN BLSN OVC015=



000
FTUS43 KFGF 030500
TAFGFK
TAF
KGFK 030531Z 0306/0406 18015KT P6SM FEW080
     FM031000 30015G22KT 4SM -SN OVC020
     FM031300 32023G30KT 4SM -SN OVC015=



000
FTUS43 KFGF 030500
TAFFAR
TAF
KFAR 030531Z 0306/0406 17023KT P6SM BKN200
     FM030900 23014KT 5SM -SN OVC030
     FM031100 31017G24KT 2SM -SN OVC019
     FM031400 32023G32KT 1SM -SN BLSN OVC015=



000
FTUS43 KFGF 022300
TAFFAR
TAF
KFAR 022340Z 0300/0324 16026KT P6SM BKN070
     FM030200 16024KT P6SM BKN080
     FM030900 23014KT 5SM -SN OVC030
     FM031100 31017G24KT 2SM -SN OVC019
     FM031400 32023G32KT 1SM -SN BLSN OVC015=



000
FTUS43 KFGF 022300
TAFFAR
TAF
KFAR 022340Z 0300/0324 16026KT P6SM BKN070
     FM030200 16024KT P6SM BKN080
     FM030900 23014KT 5SM -SN OVC030
     FM031100 31017G24KT 2SM -SN OVC019
     FM031400 32023G32KT 1SM -SN BLSN OVC015=



000
FTUS43 KFGF 022300
TAFFAR
TAF
KFAR 022337Z 0300/0324 16020KT P6SM BKN070
     FM030200 16024KT P6SM BKN080
     FM030900 23014KT 5SM -SN OVC030
     FM031100 31017G24KT 2SM -SN OVC019
     FM031400 32023G32KT 1SM -SN BLSN OVC015=



000
FTUS43 KFGF 022300
TAFGFK
TAF
KGFK 022337Z 0300/0324 18019KT P6SM FEW080
     FM030200 17020KT P6SM BKN080
     FM030900 30015G22KT 2SM -SN OVC020
     FM031300 32023G30KT 4SM -SN OVC015=



    US Dept of Commerce
    National Oceanic and Atmospheric Administration
    National Weather Service
    1325 East West Highway
    Silver Spring, MD 20910
    Page Author: NWS Internet Services Team
Disclaimer
Information Quality
Credits
Glossary
Privacy Policy
Freedom of Information Act (FOIA)
About Us
Career Opportunities